Time;durP1;ratioP1;P1;durP2;ratioP2;P2;SDS_P1;SDS_P2;PMS_P1;PMS_P2;Temp;Humidity;BMP_temperature;BMP_pressure;BME280_temperature;BME280_humidity;BME280_pressure;Samples;Min_cycle;Max_cycle;Signal;HPM_P1;HPM_P2
2023/04/19 00:02:37;;;;;;;21.63;15.13;;;8.30;99.90;;;;;;5055443;28;20119;-91
2023/04/19 00:05:26;;;;;;;22.20;15.88;;;8.40;99.90;;;;;;5057910;28;20045;-90
2023/04/19 00:08:13;;;;;;;20.50;15.43;;;8.30;99.90;;;;;;5039695;28;20045;-92
2023/04/19 00:11:00;;;;;;;21.15;15.15;;;8.30;99.90;;;;;;5065620;28;20056;-88
2023/04/19 00:13:48;;;;;;;24.13;16.00;;;8.30;99.90;;;;;;5056251;28;20099;-91
2023/04/19 00:16:38;;;;;;;21.90;14.85;;;8.30;1.00;;;;;;5053002;28;20049;-92
2023/04/19 00:19:27;;;;;;;22.95;16.15;;;8.30;1.00;;;;;;5063133;28;20461;-92
2023/04/19 00:22:35;;;;;;;24.58;16.75;;;8.30;1.00;;;;;;5030301;28;20060;-92
2023/04/19 00:25:27;;;;;;;20.77;15.27;;;8.30;1.00;;;;;;5041561;28;20762;-92
2023/04/19 00:28:15;;;;;;;22.33;15.85;;;8.20;1.00;;;;;;5046442;28;20052;-90
2023/04/19 00:31:14;;;;;;;21.30;15.02;;;8.20;1.00;;;;;;5052684;28;20064;-91
2023/04/19 00:34:01;;;;;;;23.95;16.92;;;8.20;1.00;;;;;;5032045;28;20076;-90
2023/04/19 00:36:49;;;;;;;24.67;16.55;;;8.20;1.00;;;;;;5043309;28;20481;-92
2023/04/19 00:39:36;;;;;;;22.60;16.27;;;8.20;1.00;;;;;;5054006;28;20037;-91
2023/04/19 00:42:27;;;;;;;25.30;17.42;;;8.20;1.00;;;;;;5053144;28;20091;-91
2023/04/19 00:45:14;;;;;;;25.73;17.48;;;8.20;8.70;;;;;;5041434;28;20421;-89
2023/04/19 00:48:02;;;;;;;23.70;16.67;;;8.20;21.40;;;;;;5050308;28;20090;-89
2023/04/19 00:50:50;;;;;;;25.98;17.13;;;8.20;37.20;;;;;;5024998;28;20096;-90
2023/04/19 00:53:37;;;;;;;22.75;16.15;;;8.20;67.70;;;;;;5041722;28;20048;-91
2023/04/19 00:56:44;;;;;;;23.17;16.58;;;8.10;91.00;;;;;;5039476;28;20041;-91
2023/04/19 00:59:36;;;;;;;23.88;16.05;;;8.10;99.90;;;;;;5027718;28;20052;-88
2023/04/19 01:02:24;;;;;;;23.85;16.52;;;8.10;99.90;;;;;;5053106;28;20044;-91
2023/04/19 01:05:16;;;;;;;24.50;16.17;;;8.10;99.90;;;;;;5028557;28;20097;-89
2023/04/19 01:08:11;;;;;;;27.88;16.85;;;8.10;99.90;;;;;;5044373;28;20053;-91
2023/04/19 01:11:01;;;;;;;27.92;16.63;;;8.10;99.90;;;;;;5034390;28;20393;-91
2023/04/19 01:13:49;;;;;;;24.58;17.38;;;8.10;99.90;;;;;;5054107;28;20049;-93
2023/04/19 01:16:37;;;;;;;25.88;17.05;;;8.10;99.90;;;;;;5045245;28;20041;-88
2023/04/19 01:19:25;;;;;;;24.65;17.27;;;8.10;99.90;;;;;;5036054;28;20102;-92
2023/04/19 01:22:21;;;;;;;26.23;17.40;;;8.10;99.90;;;;;;5038738;28;20069;-92
2023/04/19 01:25:10;;;;;;;22.63;16.80;;;8.00;99.90;;;;;;5043916;28;20398;-91
2023/04/19 01:27:59;;;;;;;27.15;17.33;;;8.00;99.90;;;;;;5051741;28;20037;-91
2023/04/19 01:30:49;;;;;;;27.60;18.23;;;8.00;99.90;;;;;;5053537;28;20134;-92
2023/04/19 01:33:37;;;;;;;27.95;18.88;;;8.00;99.90;;;;;;5046294;28;20048;-87
2023/04/19 01:36:26;;;;;;;29.58;18.90;;;8.00;99.90;;;;;;5033996;28;20415;-90
2023/04/19 01:39:14;;;;;;;26.20;17.30;;;8.00;99.90;;;;;;5045452;28;20048;-88
2023/04/19 01:42:01;;;;;;;28.70;18.23;;;8.00;99.90;;;;;;5049078;28;20060;-92
2023/04/19 01:44:49;;;;;;;25.45;17.67;;;8.00;1.00;;;;;;5042212;28;20081;-91
2023/04/19 01:47:36;;;;;;;26.42;17.52;;;8.00;1.00;;;;;;5051125;28;20198;-91
2023/04/19 01:50:24;;;;;;;26.02;17.75;;;8.00;1.00;;;;;;5054831;28;20068;-90
2023/04/19 01:53:11;;;;;;;27.20;17.80;;;7.90;1.00;;;;;;5039738;28;20137;-91
2023/04/19 01:55:59;;;;;;;27.50;18.10;;;7.90;1.00;;;;;;5057692;28;20045;-91
2023/04/19 01:58:46;;;;;;;29.05;18.98;;;7.90;1.00;;;;;;5038205;28;20397;-93
2023/04/19 02:01:36;;;;;;;28.73;19.20;;;7.90;1.00;;;;;;5038901;28;20048;-92
2023/04/19 02:04:25;;;;;;;26.73;18.42;;;7.90;1.00;;;;;;5043032;28;20174;-91
2023/04/19 02:07:13;;;;;;;26.88;18.45;;;7.90;1.00;;;;;;5027762;28;20052;-89
2023/04/19 02:10:00;;;;;;;30.90;18.65;;;7.90;1.00;;;;;;5047132;28;20363;-90
2023/04/19 02:12:48;;;;;;;32.47;19.38;;;7.90;1.00;;;;;;5049053;28;20071;-90
2023/04/19 02:15:36;;;;;;;28.88;18.60;;;7.80;15.50;;;;;;5039958;28;20055;-91
2023/04/19 02:18:25;;;;;;;25.15;17.42;;;7.80;45.60;;;;;;5047725;28;20344;-88
2023/04/19 02:21:15;;;;;;;31.35;20.15;;;7.80;99.90;;;;;;5050895;28;20076;-91
2023/04/19 02:24:02;;;;;;;32.67;20.08;;;7.80;99.90;;;;;;5046072;28;20049;-90
2023/04/19 02:26:51;;;;;;;35.65;21.15;;;7.80;99.90;;;;;;5056248;28;20041;-91
2023/04/19 02:29:39;;;;;;;29.50;19.88;;;7.80;99.90;;;;;;5054109;28;20095;-92
2023/04/19 02:32:26;;;;;;;28.92;18.92;;;7.80;99.90;;;;;;5048220;28;20056;-90
2023/04/19 02:35:15;;;;;;;30.85;19.10;;;7.80;99.90;;;;;;5061562;28;20048;-91
2023/04/19 02:38:04;;;;;;;28.70;19.20;;;7.80;99.90;;;;;;5046511;28;20383;-92
2023/04/19 02:40:59;;;;;;;29.00;18.23;;;7.80;99.90;;;;;;5049121;28;20428;-91
2023/04/19 02:43:47;;;;;;;30.17;19.85;;;7.80;99.90;;;;;;5039327;28;20556;-92
2023/04/19 02:46:34;;;;;;;32.08;20.23;;;7.80;99.90;;;;;;5044909;28;20045;-91
2023/04/19 02:49:24;;;;;;;31.33;19.67;;;7.80;99.90;;;;;;5052060;28;20049;-91
2023/04/19 02:52:11;;;;;;;31.58;20.45;;;7.80;99.90;;;;;;5040029;28;20091;-90
2023/04/19 02:54:58;;;;;;;29.20;19.45;;;7.80;1.00;;;;;;5034565;28;20165;-90
2023/04/19 02:57:45;;;;;;;29.20;19.20;;;7.80;1.00;;;;;;5070419;28;20046;-90
2023/04/19 03:00:33;;;;;;;32.97;19.40;;;7.70;1.00;;;;;;5055677;28;20049;-90
2023/04/19 03:03:21;;;;;;;32.53;20.40;;;7.70;1.00;;;;;;5047316;28;20439;-91
2023/04/19 03:06:08;;;;;;;32.30;20.38;;;7.70;1.00;;;;;;5044983;28;20033;-91
2023/04/19 03:08:58;;;;;;;31.35;20.35;;;7.70;1.00;;;;;;5047260;28;20410;-90
2023/04/19 03:11:45;;;;;;;29.52;19.70;;;7.70;1.00;;;;;;5043384;28;20445;-91
2023/04/19 03:14:32;;;;;;;33.60;21.08;;;7.70;1.00;;;;;;5036397;28;20045;-91
2023/04/19 03:17:22;;;;;;;29.50;21.08;;;7.70;20.00;;;;;;5036874;28;20107;-90
2023/04/19 03:20:10;;;;;;;29.98;20.83;;;7.60;49.40;;;;;;5064116;28;20504;-89
2023/04/19 03:22:58;;;;;;;32.85;19.60;;;7.70;96.20;;;;;;5053234;28;20075;-91
2023/04/19 03:25:47;;;;;;;32.25;22.40;;;7.60;99.90;;;;;;5052002;28;20443;-90
2023/04/19 03:28:34;;;;;;;33.38;20.85;;;7.60;99.90;;;;;;5040013;28;20045;-90
2023/04/19 03:31:22;;;;;;;32.90;21.63;;;7.70;99.90;;;;;;5047284;28;20099;-90
2023/04/19 03:34:09;;;;;;;33.20;21.60;;;7.60;99.90;;;;;;5037884;28;20104;-90
2023/04/19 03:36:57;;;;;;;36.78;22.23;;;7.70;99.90;;;;;;5035574;28;20095;-91
2023/04/19 03:39:45;;;;;;;32.05;21.38;;;7.60;99.90;;;;;;5030282;28;20045;-91
2023/04/19 03:42:34;;;;;;;31.90;21.50;;;7.60;99.90;;;;;;5049331;28;20037;-89
2023/04/19 03:45:22;;;;;;;34.05;22.23;;;7.60;99.90;;;;;;5059867;28;20059;-92
2023/04/19 03:48:09;;;;;;;33.72;22.00;;;7.60;99.90;;;;;;5057323;28;20041;-91
2023/04/19 03:50:57;;;;;;;36.38;22.10;;;7.60;99.90;;;;;;5030585;28;20060;-90
2023/04/19 03:53:44;;;;;;;32.95;21.35;;;7.60;99.90;;;;;;5052043;28;20044;-91
2023/04/19 03:56:31;;;;;;;35.80;22.90;;;7.60;99.90;;;;;;5033816;28;20041;-87
2023/04/19 03:59:19;;;;;;;35.72;23.23;;;7.60;99.90;;;;;;5055197;28;20098;-91
2023/04/19 04:06:06;;;;;;;34.10;21.75;;;7.50;99.90;;;;;;5050913;28;20040;-89
2023/04/19 04:08:54;;;;;;;37.55;23.52;;;7.50;1.00;;;;;;5035268;28;20114;-89
2023/04/19 04:11:51;;;;;;;35.92;23.42;;;7.50;1.00;;;;;;5061780;28;20183;-90
2023/04/19 04:14:39;;;;;;;35.25;22.92;;;7.50;1.00;;;;;;5057600;28;20041;-90
2023/04/19 04:17:27;;;;;;;37.78;22.60;;;7.50;28.10;;;;;;5058763;28;20051;-90
2023/04/19 04:20:15;;;;;;;39.85;24.08;;;7.50;99.90;;;;;;5035967;28;20045;-90
2023/04/19 04:23:02;;;;;;;37.45;24.92;;;7.50;99.90;;;;;;5051564;28;20043;-90
2023/04/19 04:26:00;;;;;;;40.97;24.70;;;7.50;99.90;;;;;;5052796;28;20127;-87
2023/04/19 04:28:50;;;;;;;47.85;26.52;;;7.50;99.90;;;;;;5060406;28;20037;-90
2023/04/19 04:31:38;;;;;;;40.65;26.10;;;7.40;1.00;;;;;;5035374;28;20037;-86
2023/04/19 04:34:25;;;;;;;43.25;24.85;;;7.50;1.00;;;;;;5047740;28;20033;-88
2023/04/19 04:37:12;;;;;;;37.33;25.15;;;7.50;1.00;;;;;;5047246;28;20051;-89
2023/04/19 04:40:00;;;;;;;41.28;26.10;;;7.50;37.30;;;;;;5054049;28;20045;-88
2023/04/19 04:42:48;;;;;;;43.13;26.02;;;7.50;99.90;;;;;;5059582;28;20183;-87
2023/04/19 04:45:36;;;;;;;45.00;26.98;;;7.40;99.90;;;;;;5042602;28;20063;-88
2023/04/19 04:48:24;;;;;;;41.40;26.55;;;7.40;99.90;;;;;;5048520;28;20201;-86
2023/04/19 04:51:14;;;;;;;43.03;26.95;;;7.40;99.90;;;;;;5046849;28;20053;-90
2023/04/19 04:54:02;;;;;;;43.25;27.27;;;7.40;99.90;;;;;;5049113;28;20041;-91
2023/04/19 04:56:51;;;;;;;41.15;25.90;;;7.40;99.90;;;;;;5061735;28;20363;-91
2023/04/19 04:59:39;;;;;;;41.53;27.23;;;7.40;99.90;;;;;;5060505;28;20055;-90
2023/04/19 05:02:27;;;;;;;38.10;25.33;;;7.40;99.90;;;;;;5052574;28;20071;-89
2023/04/19 05:05:14;;;;;;;46.28;28.15;;;7.40;99.90;;;;;;5042849;28;20116;-89
2023/04/19 05:08:02;;;;;;;43.47;26.67;;;7.50;99.90;;;;;;5045099;28;20068;-90
2023/04/19 05:10:49;;;;;;;48.25;29.35;;;7.40;99.90;;;;;;5070313;28;20397;-91
2023/04/19 05:13:39;;;;;;;43.63;26.83;;;7.50;99.90;;;;;;5052039;28;20045;-92
2023/04/19 05:20:45;;;;;;;43.25;24.05;;;7.70;99.90;;;;;;5041166;28;20033;-93
2023/04/19 05:23:55;;;;;;;40.70;25.08;;;7.90;93.40;;;;;;5055456;28;20045;-92
2023/04/19 05:26:51;;;;;;;39.28;24.73;;;8.00;1.00;;;;;;5041157;28;20041;-94
2023/04/19 05:29:50;;;;;;;36.85;24.42;;;8.10;99.90;;;;;;5038120;28;20048;-91
2023/04/19 05:32:58;;;;;;;35.30;23.33;;;8.20;99.90;;;;;;5057035;28;20063;-92
2023/04/19 05:35:46;;;;;;;36.47;22.98;;;8.30;57.80;;;;;;5056229;28;20049;-90
2023/04/19 05:38:33;;;;;;;39.80;23.85;;;8.20;99.90;;;;;;5051646;28;20052;-91
2023/04/19 05:41:22;;;;;;;34.22;22.88;;;8.20;99.90;;;;;;5052435;28;20045;-91
2023/04/19 05:44:09;;;;;;;36.22;22.98;;;8.20;99.90;;;;;;5040035;28;20170;-91
2023/04/19 05:46:58;;;;;;;35.33;23.45;;;8.10;1.00;;;;;;5050943;28;20102;-86
2023/04/19 05:49:45;;;;;;;36.47;23.55;;;8.10;1.00;;;;;;5027577;28;20056;-89
2023/04/19 05:52:38;;;;;;;34.10;22.30;;;8.00;99.90;;;;;;5039696;28;21715;-89
2023/04/19 05:55:59;;;;;;;;;;;;;;;;;;;;;
2023/04/19 05:59:17;;;;;;;42.35;24.73;;;7.90;99.90;;;;;;5044633;28;20266;-93
2023/04/19 06:02:21;;;;;;;36.42;23.83;;;7.90;99.90;;;;;;5037835;28;20068;-89
2023/04/19 06:05:21;;;;;;;40.00;25.50;;;7.80;99.90;;;;;;5053715;28;20044;-93
2023/04/19 06:08:16;;;;;;;37.17;24.52;;;7.80;99.90;;;;;;5064276;28;20051;-91
2023/04/19 06:11:14;;;;;;;43.40;24.42;;;7.80;99.90;;;;;;5056357;28;20045;-92
2023/04/19 06:14:45;;;;;;;42.05;24.92;;;7.90;1.00;;;;;;5047871;28;20037;-90
2023/04/19 06:17:43;;;;;;;41.28;24.52;;;7.90;99.90;;;;;;5045221;28;20402;-90
2023/04/19 06:20:49;;;;;;;;;;;;;;;;;;;;;
2023/04/19 06:24:00;;;;;;;25.25;17.10;;;7.90;99.90;;;;;;5063445;28;20166;-94
2023/04/19 06:39:38;;;;;;;40.03;23.50;;;8.10;99.90;;;;;;4930775;29;20194;-92
2023/04/19 06:42:35;;;;;;;36.72;23.42;;;8.20;30.70;;;;;;4989932;28;20038;-91
2023/04/19 06:45:26;;;;;;;35.95;22.83;;;8.20;1.00;;;;;;4978430;28;20050;-91
2023/04/19 06:48:13;;;;;;;34.15;22.80;;;8.30;1.00;;;;;;4977430;28;20475;-92
2023/04/19 06:51:00;;;;;;;34.47;21.88;;;8.30;99.90;;;;;;4998514;28;20161;-92
2023/04/19 06:53:49;;;;;;;29.95;20.65;;;8.50;99.90;;;;;;4985806;28;20494;-90
2023/04/19 06:56:46;;;;;;;31.27;21.33;;;8.50;99.90;;;;;;5011895;28;20042;-90
2023/04/19 07:03:45;;;;;;;33.08;21.90;;;8.60;97.70;;;;;;4963008;28;20058;-90
2023/04/19 07:06:50;;;;;;;31.17;20.05;;;8.80;16.80;;;;;;4982388;28;20027;-90
2023/04/19 07:09:38;;;;;;;28.52;19.42;;;8.90;1.00;;;;;;5011249;28;20403;-89
2023/04/19 07:12:31;;;;;;;29.95;20.13;;;8.90;1.00;;;;;;5024349;28;20037;-91
2023/04/19 07:15:39;;;;;;;34.83;19.33;;;8.90;99.90;;;;;;5046983;28;20094;-92
2023/04/19 07:18:43;;;;;;;29.20;19.48;;;9.00;99.90;;;;;;5051528;28;20469;-91
2023/04/19 07:21:39;;;;;;;30.92;19.65;;;9.10;99.90;;;;;;5056869;28;20171;-89
2023/04/19 07:24:43;;;;;;;26.85;17.27;;;9.20;99.90;;;;;;5061250;28;20029;-90
2023/04/19 07:28:25;;;;;;;28.33;19.05;;;9.30;99.90;;;;;;4979942;28;20042;-91
2023/04/19 07:32:00;;;;;;;;;;;;;;;;;;;;;
2023/04/19 07:35:10;;;;;;;25.90;17.40;;;9.40;57.10;;;;;;4907606;29;20084;-93
2023/04/19 07:38:23;;;;;;;;;;;;;;;;;;;;;
2023/04/19 07:42:29;;;;;;;28.05;17.08;;;9.40;1.00;;;;;;4947288;29;20063;-91
2023/04/19 07:52:33;;;;;;;23.48;16.90;;;9.70;1.00;;;;;;4955186;29;20067;-91
2023/04/19 07:55:21;;;;;;;27.48;17.00;;;9.90;1.00;;;;;;4935389;29;20844;-89
2023/04/19 07:58:42;;;;;;;;;;;;;;;;;;;;;
2023/04/19 08:01:53;;;;;;;;;;;10.30;99.90;;;;;;4971530;28;20051;-90
2023/04/19 08:04:50;;;;;;;21.42;14.77;;;10.20;99.90;;;;;;5066272;28;19931;-93
2023/04/19 08:08:05;;;;;;;25.52;16.17;;;10.20;99.90;;;;;;5038547;28;20121;-93
2023/04/19 08:11:06;;;;;;;23.92;15.13;;;10.20;99.90;;;;;;5046366;28;20364;-92
2023/04/19 08:13:56;;;;;;;21.98;15.00;;;10.40;99.90;;;;;;5033077;28;20056;-91
2023/04/19 08:17:03;;;;;;;21.33;14.45;;;10.50;99.90;;;;;;5054813;28;20131;-91
2023/04/19 08:19:56;;;;;;;19.52;14.63;;;10.60;99.90;;;;;;5069941;28;20053;-92
2023/04/19 09:08:29;;;;;;;19.33;12.30;;;14.10;99.90;;;;;;4940342;28;20051;-92
2023/04/19 09:15:55;;;;;;;12.20;10.15;;;14.20;99.90;;;;;;4961803;28;20034;-92
2023/04/19 09:19:17;;;;;;;14.27;10.68;;;13.80;99.90;;;;;;4972142;28;20050;-92
2023/04/19 09:22:20;;;;;;;18.25;11.57;;;13.50;99.90;;;;;;5006214;28;20061;-91
2023/04/19 09:34:17;;;;;;;13.95;9.20;;;14.10;99.90;;;;;;4967297;28;20163;-94
2023/04/19 09:38:13;;;;;;;11.35;8.70;;;14.80;99.90;;;;;;4925055;29;20063;-92
2023/04/19 09:45:11;;;;;;;11.77;9.05;;;15.70;99.90;;;;;;4937428;29;20044;-92
2023/04/19 09:49:29;;;;;;;13.10;9.38;;;15.80;99.90;;;;;;4934928;29;20051;-93
2023/04/19 09:53:36;;;;;;;;;;;;;;;;;;;;;
2023/04/19 09:56:35;;;;;;;;;;;;;;;;;;;;;
2023/04/19 09:59:46;;;;;;;15.93;9.30;;;14.60;99.90;;;;;;4945173;29;20082;-89
2023/04/19 10:02:36;;;;;;;18.17;10.25;;;14.40;99.90;;;;;;4949129;29;20130;-91
2023/04/19 10:05:55;;;;;;;13.52;10.05;;;14.20;99.90;;;;;;4949145;28;20047;-92
2023/04/19 10:16:58;;;;;;;11.98;8.13;;;18.90;99.90;;;;;;4975516;28;20093;-93
2023/04/19 10:20:07;;;;;;;10.00;8.02;;;20.00;99.90;;;;;;4975770;28;20543;-90
2023/04/19 10:23:37;;;;;;;9.80;8.10;;;19.90;99.90;;;;;;4982412;28;20159;-93
2023/04/19 10:27:06;;;;;;;10.38;7.55;;;19.70;99.90;;;;;;5013340;28;20040;-93
2023/04/19 10:30:12;;;;;;;13.30;6.43;;;20.00;99.90;;;;;;5059590;28;20044;-92
2023/04/19 10:33:01;;;;;;;8.57;7.30;;;19.40;99.90;;;;;;5048974;28;20041;-90
2023/04/19 10:36:21;;;;;;;10.13;6.40;;;19.10;99.90;;;;;;5052772;28;20095;-92
2023/04/19 10:53:08;;;;;;;;;;;;;;;;;;;;;
2023/04/19 11:05:00;;;;;;;11.80;9.00;;;14.80;99.90;;;;;;4842819;29;20046;-91
2023/04/19 11:12:48;;;;;;;10.60;8.02;;;15.60;99.90;;;;;;4820474;29;20038;-92
2023/04/19 11:20:34;;;;;;;15.57;8.80;;;14.90;99.90;;;;;;4862627;29;19946;-93
2023/04/19 11:23:36;;;;;;;12.88;8.13;;;14.00;99.90;;;;;;4873833;29;20076;-91
2023/04/19 11:26:31;;;;;;;11.38;8.98;;;13.90;99.90;;;;;;4916130;29;20041;-91
2023/04/19 11:29:27;;;;;;;11.02;8.70;;;13.80;99.90;;;;;;4947241;28;20485;-91
2023/04/19 11:32:17;;;;;;;14.05;9.57;;;13.80;99.90;;;;;;4960622;28;20051;-89
2023/04/19 11:35:17;;;;;;;12.68;9.25;;;13.70;99.90;;;;;;4947879;29;20079;-92
2023/04/19 11:38:04;;;;;;;14.88;10.45;;;13.40;99.90;;;;;;4961544;28;20066;-91
2023/04/19 11:41:02;;;;;;;15.88;9.88;;;12.90;99.90;;;;;;4958008;28;20059;-89
2023/04/19 11:44:11;;;;;;;14.43;10.52;;;12.60;99.90;;;;;;4971576;28;20051;-93
2023/04/19 11:47:52;;;;;;;;;;;;;;;;;;;;;
2023/04/19 11:51:05;;;;;;;16.67;10.35;;;12.00;99.90;;;;;;4965363;28;20046;-91
2023/04/19 11:54:41;;;;;;;14.40;10.10;;;11.80;99.90;;;;;;4976949;28;20047;-92
2023/04/19 12:02:06;;;;;;;18.02;10.43;;;11.80;99.90;;;;;;4757008;30;20079;-88
2023/04/19 12:09:54;;;;;;;14.95;10.40;;;11.80;99.90;;;;;;5317494;22;20050;-89
2023/04/19 12:13:47;;;;;;;19.20;11.20;;;11.80;99.90;;;;;;5078341;28;20074;-92
2023/04/19 12:21:10;;;;;;;;;;;;;;;;;;;;;
2023/04/19 12:24:45;;;;;;;15.88;11.95;;;11.60;99.90;;;;;;4985967;28;20058;-91
2023/04/19 12:27:47;;;;;;;19.58;12.52;;;11.40;99.90;;;;;;5057390;28;20032;-90
2023/04/19 12:30:52;;;;;;;22.10;12.95;;;11.20;99.90;;;;;;5069544;28;20036;-89
2023/04/19 12:33:40;;;;;;;18.02;12.88;;;10.90;99.90;;;;;;5080935;28;20055;-91
2023/04/19 12:36:37;;;;;;;;;;;;;;;;;;;;;
2023/04/19 12:40:02;;;;;;;;;;;;;;;;;;;;;
2023/04/19 12:43:14;;;;;;;20.75;13.88;;;10.50;99.90;;;;;;5003782;28;20106;-92
2023/04/19 12:46:03;;;;;;;;;;;10.50;99.90;;;;;;4984168;28;20050;-88
2023/04/19 12:48:53;;;;;;;20.90;14.18;;;10.40;99.90;;;;;;4973959;28;19929;-88
2023/04/19 12:51:41;;;;;;;20.27;13.68;;;10.40;1.00;;;;;;4996762;28;20058;-90
2023/04/19 12:54:31;;;;;;;23.75;15.10;;;10.40;1.00;;;;;;5009944;28;20105;-94
2023/04/19 12:57:52;;;;;;;20.88;14.75;;;10.30;1.00;;;;;;5016369;28;20050;-93
2023/04/19 13:00:55;;;;;;;21.52;14.57;;;10.20;1.00;;;;;;5006626;28;20046;-89
2023/04/19 13:03:51;;;;;;;21.27;15.73;;;10.10;1.00;;;;;;4986814;28;20051;-91
2023/04/19 13:06:43;;;;;;;18.20;13.75;;;10.00;43.00;;;;;;5059410;28;20041;-92
2023/04/19 13:09:39;;;;;;;20.60;14.68;;;9.90;99.90;;;;;;5077451;28;20037;-94
2023/04/19 13:12:39;;;;;;;23.80;15.60;;;9.80;99.90;;;;;;5076109;28;20037;-92
2023/04/19 13:15:48;;;;;;;26.95;17.17;;;9.70;99.90;;;;;;5071314;28;20044;-91
2023/04/19 13:18:48;;;;;;;29.52;19.88;;;9.60;1.00;;;;;;5068566;28;20107;-89
2023/04/19 13:21:35;;;;;;;30.63;21.25;;;9.30;99.90;;;;;;5059610;28;20361;-89
2023/04/19 13:24:22;;;;;;;31.67;21.80;;;9.20;99.90;;;;;;5072653;28;20059;-88
2023/04/19 13:27:10;;;;;;;39.90;25.42;;;9.10;1.00;;;;;;5060782;28;20044;-90
2023/04/19 13:30:02;;;;;;;49.08;28.33;;;9.00;99.90;;;;;;5051732;28;20120;-89
2023/04/19 13:32:54;;;;;;;53.80;30.88;;;8.90;1.00;;;;;;5060314;28;20045;-89
2023/04/19 13:35:43;;;;;;;59.92;32.83;;;8.70;99.90;;;;;;5074136;28;20056;-90
2023/04/19 13:38:31;;;;;;;65.15;35.60;;;8.60;99.90;;;;;;5074546;28;20474;-90
2023/04/19 13:41:19;;;;;;;66.18;35.58;;;8.60;70.40;;;;;;5070136;28;20496;-91
2023/04/19 13:44:09;;;;;;;67.70;35.58;;;8.50;96.40;;;;;;5085175;28;20051;-89
2023/04/19 13:47:00;;;;;;;69.10;36.97;;;8.50;99.90;;;;;;5073867;28;20055;-93
2023/04/19 13:49:51;;;;;;;72.07;37.85;;;8.40;1.00;;;;;;5064529;28;20453;-91
2023/04/19 13:52:38;;;;;;;75.35;38.17;;;8.40;99.90;;;;;;5066399;28;20075;-90
2023/04/19 13:55:26;;;;;;;71.47;37.55;;;8.40;1.00;;;;;;5071908;28;20069;-90
2023/04/19 13:58:13;;;;;;;78.00;38.72;;;8.30;37.10;;;;;;5071632;28;20459;-90
2023/04/19 14:01:02;;;;;;;71.53;38.60;;;8.20;99.90;;;;;;5072498;28;20372;-89
2023/04/19 14:03:52;;;;;;;78.47;39.65;;;8.20;99.90;;;;;;5052347;28;20049;-90
2023/04/19 14:06:40;;;;;;;82.43;39.13;;;8.10;99.90;;;;;;5061437;28;20081;-88
2023/04/19 14:09:28;;;;;;;75.88;36.90;;;8.00;99.90;;;;;;5048419;28;20037;-89
2023/04/19 14:12:16;;;;;;;69.72;36.78;;;8.00;99.90;;;;;;5056419;28;20060;-87
2023/04/19 14:15:04;;;;;;;75.20;38.30;;;8.00;99.90;;;;;;5043521;28;20644;-87
2023/04/19 14:17:52;;;;;;;63.50;34.90;;;8.00;99.90;;;;;;5037693;28;20060;-90
2023/04/19 14:20:39;;;;;;;76.25;38.17;;;8.00;99.90;;;;;;5048259;28;20046;-88
2023/04/19 14:23:27;;;;;;;68.00;36.45;;;7.90;99.90;;;;;;5047148;28;20049;-89
2023/04/19 14:26:15;;;;;;;67.68;36.83;;;7.90;99.90;;;;;;5048578;28;20112;-89
2023/04/19 14:29:02;;;;;;;70.65;37.72;;;7.90;99.90;;;;;;5058093;28;20351;-88
2023/04/19 14:31:50;;;;;;;71.88;38.13;;;7.90;99.90;;;;;;5060280;28;20052;-89
2023/04/19 14:34:38;;;;;;;70.95;38.72;;;7.90;99.90;;;;;;5037455;28;20050;-89
2023/04/19 14:37:25;;;;;;;79.85;37.95;;;7.90;99.90;;;;;;5037071;28;20041;-88
2023/04/19 14:40:13;;;;;;;67.40;37.28;;;7.90;99.90;;;;;;5051278;28;20123;-87
2023/04/19 14:43:03;;;;;;;73.90;38.63;;;7.90;99.90;;;;;;5036290;28;20055;-88
2023/04/19 14:45:51;;;;;;;65.32;35.40;;;7.90;99.90;;;;;;5040717;28;20037;-88
2023/04/19 14:48:39;;;;;;;72.63;38.25;;;7.90;99.90;;;;;;5042909;28;20382;-89
2023/04/19 14:51:30;;;;;;;66.95;37.47;;;8.00;99.90;;;;;;5052610;28;20278;-87
2023/04/19 14:54:19;;;;;;;71.45;37.15;;;8.00;99.90;;;;;;5043033;28;20332;-88
2023/04/19 14:57:07;;;;;;;59.83;35.47;;;8.00;99.90;;;;;;5043596;28;20051;-86
2023/04/19 14:59:59;;;;;;;62.83;35.70;;;7.90;99.90;;;;;;5043569;28;20072;-89
2023/04/19 15:02:48;;;;;;;68.97;36.97;;;8.00;99.90;;;;;;5042574;28;20041;-89
2023/04/19 15:05:37;;;;;;;58.72;34.78;;;8.10;99.90;;;;;;5059264;28;20067;-90
2023/04/19 15:08:26;;;;;;;57.65;33.30;;;8.20;99.90;;;;;;5042980;28;20056;-88
2023/04/19 15:11:17;;;;;;;63.28;34.15;;;8.20;99.90;;;;;;5051027;28;20045;-88
2023/04/19 15:14:05;;;;;;;57.20;33.22;;;8.30;99.90;;;;;;5052946;28;20045;-87
2023/04/19 15:16:53;;;;;;;49.90;30.38;;;8.30;99.90;;;;;;5054664;28;20073;-89
2023/04/19 15:19:41;;;;;;;48.88;29.25;;;8.40;99.90;;;;;;5065344;28;20060;-92
2023/04/19 15:22:28;;;;;;;42.78;27.60;;;8.40;99.90;;;;;;5051583;28;20045;-89
2023/04/19 15:25:16;;;;;;;42.92;25.92;;;8.50;99.90;;;;;;5054995;28;20053;-89
2023/04/19 15:28:04;;;;;;;41.63;26.23;;;8.50;99.90;;;;;;5055480;28;20047;-89
2023/04/19 15:31:00;;;;;;;42.60;26.10;;;8.40;99.90;;;;;;5055128;28;20051;-88
2023/04/19 15:33:47;;;;;;;44.30;26.35;;;8.30;99.90;;;;;;5064021;28;20044;-91
2023/04/19 15:36:35;;;;;;;39.97;26.13;;;8.30;99.90;;;;;;5060152;28;20147;-89
2023/04/19 15:39:22;;;;;;;46.70;28.98;;;8.30;99.90;;;;;;5046914;28;20041;-89
2023/04/19 15:42:10;;;;;;;46.92;27.80;;;8.30;99.90;;;;;;5043486;28;20041;-89
2023/04/19 15:44:59;;;;;;;45.45;27.75;;;8.40;99.90;;;;;;5055902;28;20099;-88
2023/04/19 15:47:47;;;;;;;43.70;26.70;;;8.40;99.90;;;;;;5047871;28;20119;-90
2023/04/19 15:50:38;;;;;;;50.95;28.17;;;8.50;99.90;;;;;;5045733;28;20064;-89
2023/04/19 15:53:28;;;;;;;46.20;28.48;;;8.60;99.90;;;;;;5052283;28;20041;-89
2023/04/19 15:56:15;;;;;;;47.92;28.27;;;8.50;99.90;;;;;;5042890;28;20391;-89
2023/04/19 15:59:05;;;;;;;47.67;28.25;;;8.50;99.90;;;;;;5043538;28;20049;-88
2023/04/19 16:01:52;;;;;;;45.78;27.58;;;8.50;99.90;;;;;;5055465;28;20064;-88
2023/04/19 16:04:39;;;;;;;44.72;26.25;;;8.50;99.90;;;;;;5067528;28;20048;-88
2023/04/19 16:07:27;;;;;;;40.75;24.38;;;8.50;99.90;;;;;;5064618;28;20045;-88
2023/04/19 16:10:14;;;;;;;35.95;24.38;;;8.50;99.90;;;;;;5055261;28;20115;-89
2023/04/19 16:13:05;;;;;;;38.00;24.60;;;8.50;99.90;;;;;;5052630;28;20045;-90
2023/04/19 16:15:53;;;;;;;38.83;25.95;;;8.50;99.90;;;;;;5058256;28;20109;-91
2023/04/19 16:18:40;;;;;;;38.50;24.77;;;8.60;81.80;;;;;;5039171;28;20096;-91
2023/04/19 16:21:28;;;;;;;38.33;23.17;;;8.70;1.00;;;;;;5051118;28;20175;-92
2023/04/19 16:24:16;;;;;;;41.22;24.05;;;8.70;1.00;;;;;;5050949;28;20045;-90
2023/04/19 16:27:04;;;;;;;38.17;24.40;;;8.80;99.90;;;;;;5053668;28;20041;-89
2023/04/19 16:29:51;;;;;;;39.35;23.95;;;8.80;99.90;;;;;;5055896;28;20121;-91
2023/04/19 16:32:42;;;;;;;35.08;23.50;;;8.80;57.70;;;;;;5044968;28;20037;-90
2023/04/19 16:35:30;;;;;;;37.85;23.65;;;8.80;1.00;;;;;;5058460;28;20052;-90
2023/04/19 16:38:17;;;;;;;37.22;23.48;;;8.80;44.90;;;;;;5045162;28;20057;-90
2023/04/19 16:41:05;;;;;;;36.40;21.77;;;8.80;99.90;;;;;;5047588;28;20055;-90
2023/04/19 16:43:53;;;;;;;32.22;21.63;;;8.80;1.00;;;;;;5047969;28;20373;-90
2023/04/19 16:46:42;;;;;;;30.73;20.42;;;8.70;69.00;;;;;;5065590;28;20480;-91
2023/04/19 16:49:30;;;;;;;35.03;22.00;;;8.60;99.90;;;;;;5059731;28;20049;-90
2023/04/19 16:52:17;;;;;;;41.33;24.08;;;8.50;99.90;;;;;;5057498;28;20458;-90
2023/04/19 16:55:06;;;;;;;36.92;23.63;;;8.50;99.90;;;;;;5052303;28;20045;-90
2023/04/19 16:57:54;;;;;;;34.50;23.95;;;8.60;1.00;;;;;;5047354;28;20044;-90
2023/04/19 17:00:42;;;;;;;34.80;22.42;;;8.60;37.10;;;;;;5036034;28;20064;-90
2023/04/19 17:03:32;;;;;;;34.28;20.95;;;8.50;1.00;;;;;;5043601;28;20776;-91
2023/04/19 17:06:20;;;;;;;34.65;20.80;;;8.50;99.90;;;;;;5067015;28;20098;-90
2023/04/19 17:09:09;;;;;;;31.77;20.40;;;8.40;99.90;;;;;;5063189;28;20120;-89
2023/04/19 17:11:58;;;;;;;28.65;18.30;;;8.40;1.00;;;;;;5058734;28;20051;-90
2023/04/19 17:14:46;;;;;;;26.85;18.98;;;8.40;99.90;;;;;;5051778;28;20127;-90
2023/04/19 17:17:34;;;;;;;27.85;18.73;;;8.30;99.90;;;;;;5034321;28;20053;-90
2023/04/19 17:20:21;;;;;;;29.92;18.77;;;8.10;99.90;;;;;;5051969;28;20477;-90
2023/04/19 17:23:09;;;;;;;26.17;17.40;;;8.10;1.00;;;;;;5068807;28;20050;-91
2023/04/19 17:25:56;;;;;;;37.45;23.27;;;8.10;1.00;;;;;;5052934;28;20041;-89
2023/04/19 17:28:45;;;;;;;34.78;21.02;;;8.00;99.90;;;;;;5055145;28;20043;-91
2023/04/19 17:31:33;;;;;;;29.52;19.23;;;8.00;99.90;;;;;;5040687;28;20620;-90
2023/04/19 17:34:23;;;;;;;27.80;19.00;;;8.00;99.90;;;;;;5039599;28;20045;-90
2023/04/19 17:37:10;;;;;;;28.95;19.08;;;7.90;99.90;;;;;;5037909;28;20041;-90
2023/04/19 17:40:03;;;;;;;26.15;18.58;;;7.80;99.90;;;;;;5043892;28;20060;-91
2023/04/19 17:42:50;;;;;;;;;;;7.80;99.90;;;;;;5053500;28;20037;-91
2023/04/19 17:45:38;;;;;;;34.72;20.85;;;7.80;99.90;;;;;;5056418;28;19921;-90